Time;durP1;ratioP1;P1;durP2;ratioP2;P2;SDS_P1;SDS_P2;PMS_P1;PMS_P2;Temp;Humidity;BMP_temperature;BMP_pressure;BME280_temperature;BME280_humidity;BME280_pressure;Samples;Min_cycle;Max_cycle;Signal;HPM_P1;HPM_P2
2023/10/04 00:01:42;;;;;;;;;;;;;;;;;;5016969;28;19910;-24
2023/10/04 00:04:08;;;;;;;;;;;;;;;;;;5016804;28;19918;-27
2023/10/04 00:06:34;;;;;;;;;;;;;;;;;;5016833;28;20344;-31
2023/10/04 00:09:00;;;;;;;;;;;;;;;;;;5016842;28;19914;-27
2023/10/04 00:11:26;;;;;;;;;;;;;;;;;;5017078;28;20303;-24
2023/10/04 00:13:52;;;;;;;;;;;;;;;;;;5016719;28;20345;-31
2023/10/04 00:16:18;;;;;;;;;;;;;;;;;;5016899;28;19910;-31
2023/10/04 00:18:44;;;;;;;;;;;;;;;;;;5016809;28;19913;-25
2023/10/04 00:21:12;;;;;;;;;;;;;;;;;;5016536;28;19914;-27
2023/10/04 00:23:38;;;;;;;;;;;;;;;;;;5016414;28;19917;-29
2023/10/04 00:26:07;;;;;;;;;;;;;;;;;;5015497;28;20264;-26
2023/10/04 00:28:33;;;;;;;;;;;;;;;;;;5016724;28;19911;-29
2023/10/04 00:30:59;;;;;;;;;;;;;;;;;;5016624;28;19957;-25
2023/10/04 00:33:26;;;;;;;;;;;;;;;;;;5016292;28;19920;-29
2023/10/04 00:35:52;;;;;;;;;;;;;;;;;;5016320;28;19925;-31
2023/10/04 00:38:19;;;;;;;;;;;;;;;;;;5016242;28;20021;-30
2023/10/04 00:40:47;;;;;;;;;;;;;;;;;;5016136;28;20020;-25
2023/10/04 00:43:14;;;;;;;;;;;;;;;;;;5016433;28;19910;-29
2023/10/04 00:45:40;;;;;;;;;;;;;;;;;;5016203;28;19909;-28
2023/10/04 00:48:08;;;;;;;;;;;;;;;;;;5016372;28;19913;-30
2023/10/04 00:50:34;;;;;;;;;;;;;;;;;;5016016;28;19913;-24
2023/10/04 00:53:00;;;;;;;;;;;;;;;;;;5014941;28;19909;-27
2023/10/04 00:55:26;;;;;;;;;;;;;;;;;;5016004;28;19910;-27
2023/10/04 00:57:54;;;;;;;;;;;;;;;;;;5015906;28;20268;-28
2023/10/04 01:00:20;;;;;;;;;;;;;;;;;;5015844;28;19918;-25
2023/10/04 01:02:46;;;;;;;;;;;;;;;;;;5015788;28;20259;-30
2023/10/04 01:05:12;;;;;;;;;;;;;;;;;;5015737;28;19948;-26
2023/10/04 01:07:38;;;;;;;;;;;;;;;;;;5015992;28;19909;-28
2023/10/04 01:10:04;;;;;;;;;;;;;;;;;;5015741;28;20307;-27
2023/10/04 01:12:30;;;;;;;;;;;;;;;;;;5015746;28;19909;-25
2023/10/04 01:15:03;;;;;;;;;;;;;;;;;;5015623;28;19917;-26
2023/10/04 01:17:29;;;;;;;;;;;;;;;;;;5015940;28;19968;-29
2023/10/04 01:19:56;;;;;;;;;;;;;;;;;;5015740;28;20276;-24
2023/10/04 01:22:22;;;;;;;;;;;;;;;;;;5015750;28;20349;-26
2023/10/04 01:24:48;;;;;;;;;;;;;;;;;;5015494;28;19916;-25
2023/10/04 01:27:14;;;;;;;;;;;;;;;;;;5015675;28;20217;-28
2023/10/04 01:29:40;;;;;;;;;;;;;;;;;;5015451;28;19909;-26
2023/10/04 01:32:08;;;;;;;;;;;;;;;;;;5014322;28;20253;-30
2023/10/04 01:34:36;;;;;;;;;;;;;;;;;;5015629;28;20260;-30
2023/10/04 01:37:03;;;;;;;;;;;;;;;;;;5015309;28;20255;-27
2023/10/04 01:39:30;;;;;;;;;;;;;;;;;;5015472;28;19956;-25
2023/10/04 01:41:56;;;;;;;;;;;;;;;;;;5014174;28;19917;-27
2023/10/04 01:44:22;;;;;;;;;;;;;;;;;;5015486;28;19909;-29
2023/10/04 01:46:48;;;;;;;;;;;;;;;;;;5015862;28;20016;-32
2023/10/04 01:49:14;;;;;;;;;;;;;;;;;;5015124;28;20131;-26
2023/10/04 01:51:42;;;;;;;;;;;;;;;;;;5015391;28;19909;-23
2023/10/04 01:54:09;;;;;;;;;;;;;;;;;;5013986;28;20004;-27
2023/10/04 01:56:37;;;;;;;;;;;;;;;;;;5015323;28;19984;-27
2023/10/04 01:59:04;;;;;;;;;;;;;;;;;;5013949;28;20345;-31
2023/10/04 02:01:31;;;;;;;;;;;;;;;;;;5015226;28;19932;-33
2023/10/04 02:03:59;;;;;;;;;;;;;;;;;;5014646;28;20974;-26
2023/10/04 02:06:25;;;;;;;;;;;;;;;;;;5014904;28;20316;-26
2023/10/04 02:08:51;;;;;;;;;;;;;;;;;;5015109;28;19909;-28
2023/10/04 02:11:21;;;;;;;;;;;;;;;;;;5015438;28;19989;-29
2023/10/04 02:13:47;;;;;;;;;;;;;;;;;;5018916;28;20340;-29
2023/10/04 02:16:13;;;;;;;;;;;;;;;;;;5018972;28;20252;-30
2023/10/04 02:18:39;;;;;;;;;;;;;;;;;;5018898;28;20007;-28
2023/10/04 02:21:05;;;;;;;;;;;;;;;;;;5018998;28;19918;-33
2023/10/04 02:23:32;;;;;;;;;;;;;;;;;;5018713;28;19909;-24
2023/10/04 02:25:58;;;;;;;;;;;;;;;;;;5018703;28;19910;-34
2023/10/04 02:28:25;;;;;;;;;;;;;;;;;;5018972;28;20392;-30
2023/10/04 02:30:54;;;;;;;;;;;;;;;;;;5018576;28;19957;-27
2023/10/04 02:33:20;;;;;;;;;;;;;;;;;;5018826;28;19909;-25
2023/10/04 02:35:47;;;;;;;;;;;;;;;;;;5018566;28;19920;-28
2023/10/04 02:38:26;;;;;;;;;;;;;;;;;;5018851;28;20228;-28
2023/10/04 02:40:52;;;;;;;;;;;;;;;;;;5018373;28;19953;-27
2023/10/04 02:43:20;;;;;;;;;;;;;;;;;;5017384;28;19916;-30
2023/10/04 02:45:47;;;;;;;;;;;;;;;;;;5018670;28;20012;-28
2023/10/04 02:48:13;;;;;;;;;;;;;;;;;;5018639;28;19909;-24
2023/10/04 02:50:42;;;;;;;;;;;;;;;;;;5018294;28;20340;-28
2023/10/04 02:53:09;;;;;;;;;;;;;;;;;;5018445;28;19982;-26
2023/10/04 02:55:35;;;;;;;;;;;;;;;;;;5018537;28;19913;-26
2023/10/04 02:58:02;;;;;;;;;;;;;;;;;;5018916;28;19960;-29
2023/10/04 03:00:28;;;;;;;;;;;;;;;;;;5018071;28;19921;-26
2023/10/04 03:02:54;;;;;;;;;;;;;;;;;;5018046;28;19914;-31
2023/10/04 03:05:20;;;;;;;;;;;;;;;;;;5017790;28;20004;-28
2023/10/04 03:07:47;;;;;;;;;;;;;;;;;;5017927;28;19909;-27
2023/10/04 03:10:13;;;;;;;;;;;;;;;;;;5017876;28;20347;-28
2023/10/04 03:12:41;;;;;;;;;;;;;;;;;;5017848;28;19909;-27
2023/10/04 03:15:07;;;;;;;;;;;;;;;;;;5017879;28;20287;-26
2023/10/04 03:17:33;;;;;;;;;;;;;;;;;;5018077;28;19909;-26
2023/10/04 03:20:00;;;;;;;;;;;;;;;;;;5017631;28;19913;-29
2023/10/04 03:22:28;;;;;;;;;;;;;;;;;;5017828;28;19920;-29
2023/10/04 03:24:54;;;;;;;;;;;;;;;;;;5017883;28;19913;-29
2023/10/04 03:27:24;;;;;;;;;;;;;;;;;;5017613;28;19971;-28
2023/10/04 03:29:52;;;;;;;;;;;;;;;;;;5017527;28;19909;-27
2023/10/04 03:32:18;;;;;;;;;;;;;;;;;;5017379;28;19909;-30
2023/10/04 03:34:44;;;;;;;;;;;;;;;;;;5017757;28;20004;-26
2023/10/04 03:37:13;;;;;;;;;;;;;;;;;;5017593;28;20375;-25
2023/10/04 03:39:39;;;;;;;;;;;;;;;;;;5017531;28;20017;-26
2023/10/04 03:42:05;;;;;;;;;;;;;;;;;;5017501;28;19952;-25
2023/10/04 03:44:31;;;;;;;;;;;;;;;;;;5017170;28;19971;-34
2023/10/04 03:46:58;;;;;;;;;;;;;;;;;;5017410;28;19910;-29
2023/10/04 03:49:25;;;;;;;;;;;;;;;;;;5017178;28;19924;-28
2023/10/04 03:51:53;;;;;;;;;;;;;;;;;;5017019;28;20262;-28
2023/10/04 03:54:19;;;;;;;;;;;;;;;;;;5017115;28;19917;-26
2023/10/04 03:56:45;;;;;;;;;;;;;;;;;;5015935;28;19987;-25
2023/10/04 03:59:11;;;;;;;;;;;;;;;;;;5016765;28;19913;-25
2023/10/04 04:01:37;;;;;;;;;;;;;;;;;;5017310;28;20248;-27
2023/10/04 04:04:03;;;;;;;;;;;;;;;;;;5015550;28;20012;-28
2023/10/04 04:06:29;;;;;;;;;;;;;;;;;;5016790;28;19913;-27
2023/10/04 04:08:56;;;;;;;;;;;;;;;;;;5016549;28;20261;-28
2023/10/04 04:11:25;;;;;;;;;;;;;;;;;;5016607;28;20359;-31
2023/10/04 04:13:51;;;;;;;;;;;;;;;;;;5015458;28;20259;-32
2023/10/04 04:16:18;;;;;;;;;;;;;;;;;;5016493;28;20004;-24
2023/10/04 04:18:44;;;;;;;;;;;;;;;;;;5016397;28;19909;-26
2023/10/04 04:21:10;;;;;;;;;;;;;;;;;;5016492;28;19913;-28
2023/10/04 04:23:36;;;;;;;;;;;;;;;;;;5016235;28;19917;-30
2023/10/04 04:26:05;;;;;;;;;;;;;;;;;;5016602;28;19916;-29
2023/10/04 04:28:31;;;;;;;;;;;;;;;;;;5016560;28;19921;-28
2023/10/04 04:30:58;;;;;;;;;;;;;;;;;;5016341;28;19988;-27
2023/10/04 04:33:28;;;;;;;;;;;;;;;;;;5016405;28;19909;-29
2023/10/04 04:36:00;;;;;;;;;;;;;;;;;;5015643;28;20017;-27
2023/10/04 04:38:28;;;;;;;;;;;;;;;;;;5016357;28;20308;-26
2023/10/04 04:40:58;;;;;;;;;;;;;;;;;;5015376;28;20337;-26
2023/10/04 04:43:43;;;;;;;;;;;;;;;;;;5015801;28;20012;-25
2023/10/04 04:46:12;;;;;;;;;;;;;;;;;;5016278;28;19944;-29
2023/10/04 04:48:38;;;;;;;;;;;;;;;;;;5014831;28;20358;-29
2023/10/04 04:51:10;;;;;;;;;;;;;;;;;;5014744;28;20100;-24
2023/10/04 04:53:36;;;;;;;;;;;;;;;;;;5015996;28;19909;-28
2023/10/04 04:56:02;;;;;;;;;;;;;;;;;;5015935;28;19917;-30
2023/10/04 04:58:31;;;;;;;;;;;;;;;;;;5015882;28;19917;-30
2023/10/04 05:01:00;;;;;;;;;;;;;;;;;;5015428;28;19914;-27
2023/10/04 05:03:26;;;;;;;;;;;;;;;;;;5015280;28;19909;-26
2023/10/04 05:05:52;;;;;;;;;;;;;;;;;;5015989;28;20343;-25
2023/10/04 05:08:18;;;;;;;;;;;;;;;;;;5015433;28;20272;-26
2023/10/04 05:10:44;;;;;;;;;;;;;;;;;;5015595;28;19914;-24
2023/10/04 05:13:13;;;;;;;;;;;;;;;;;;5015440;28;19960;-25
2023/10/04 05:15:42;;;;;;;;;;;;;;;;;;5015244;28;19909;-27
2023/10/04 05:18:11;;;;;;;;;;;;;;;;;;5015250;28;19920;-26
2023/10/04 05:20:37;;;;;;;;;;;;;;;;;;5015357;28;19924;-26
2023/10/04 05:23:04;;;;;;;;;;;;;;;;;;5015071;28;19910;-32
2023/10/04 05:25:30;;;;;;;;;;;;;;;;;;5015290;28;19910;-26
2023/10/04 05:27:56;;;;;;;;;;;;;;;;;;5015160;28;19992;-28
2023/10/04 05:30:22;;;;;;;;;;;;;;;;;;5015335;28;20313;-27
2023/10/04 05:32:48;;;;;;;;;;;;;;;;;;5015073;28;20004;-28
2023/10/04 05:35:14;;;;;;;;;;;;;;;;;;5014925;28;19964;-29
2023/10/04 05:37:40;;;;;;;;;;;;;;;;;;5014973;28;19909;-26
2023/10/04 05:40:16;;;;;;;;;;;;;;;;;;5014987;28;20005;-27
2023/10/04 05:42:42;;;;;;;;;;;;;;;;;;5015248;28;19952;-24
2023/10/04 05:45:09;;;;;;;;;;;;;;;;;;5014906;28;19910;-25
2023/10/04 05:47:35;;;;;;;;;;;;;;;;;;5013108;28;20348;-27
2023/10/04 05:50:01;;;;;;;;;;;;;;;;;;5015013;28;19909;-27
2023/10/04 05:52:27;;;;;;;;;;;;;;;;;;5014753;28;20337;-29
2023/10/04 05:54:53;;;;;;;;;;;;;;;;;;5014636;28;19909;-28
2023/10/04 05:57:19;;;;;;;;;;;;;;;;;;5014900;28;19932;-25
2023/10/04 05:59:45;;;;;;;;;;;;;;;;;;5014850;28;19913;-30
2023/10/04 06:02:11;;;;;;;;;;;;;;;;;;5013628;28;19977;-26
2023/10/04 06:04:39;;;;;;;;;;;;;;;;;;5013370;28;19921;-25
2023/10/04 06:07:07;;;;;;;;;;;;;;;;;;5014500;28;19917;-31
2023/10/04 06:09:33;;;;;;;;;;;;;;;;;;5014763;28;19967;-29
2023/10/04 06:12:01;;;;;;;;;;;;;;;;;;5014601;28;19981;-26
2023/10/04 06:14:27;;;;;;;;;;;;;;;;;;5014326;28;20047;-26
2023/10/04 06:16:53;;;;;;;;;;;;;;;;;;5014435;28;19910;-26
2023/10/04 06:19:25;;;;;;;;;;;;;;;;;;5014015;28;20298;-27
2023/10/04 06:21:52;;;;;;;;;;;;;;;;;;5014220;28;19910;-24
2023/10/04 06:24:18;;;;;;;;;;;;;;;;;;5014076;28;19909;-28
2023/10/04 06:26:44;;;;;;;;;;;;;;;;;;5014011;28;19925;-25
2023/10/04 06:29:10;;;;;;;;;;;;;;;;;;5014000;28;19980;-26
2023/10/04 06:31:35;;;;;;;;;;;;;;;;;;5014236;28;19924;-28
2023/10/04 06:34:02;;;;;;;;;;;;;;;;;;5013340;28;19909;-27
2023/10/04 06:36:29;;;;;;;;;;;;;;;;;;5013915;28;20245;-32
2023/10/04 06:38:55;;;;;;;;;;;;;;;;;;5014070;28;19916;-25
2023/10/04 06:41:26;;;;;;;;;;;;;;;;;;5013453;28;19996;-28
2023/10/04 06:43:52;;;;;;;;;;;;;;;;;;5014445;28;19921;-26
2023/10/04 06:46:18;;;;;;;;;;;;;;;;;;5014643;28;19909;-28
2023/10/04 06:48:47;;;;;;;;;;;;;;;;;;5014152;28;20475;-26
2023/10/04 06:51:13;;;;;;;;;;;;;;;;;;5014935;28;19909;-25
2023/10/04 06:53:43;;;;;;;;;;;;;;;;;;5014492;28;20246;-28
2023/10/04 06:56:09;;;;;;;;;;;;;;;;;;5014082;28;20296;-28
2023/10/04 06:58:35;;;;;;;;;;;;;;;;;;5016630;28;19983;-29
2023/10/04 07:01:01;;;;;;;;;;;;;;;;;;5017607;28;19931;-26
2023/10/04 07:03:29;;;;;;;;;;;;;;;;;;5017909;28;20000;-30
2023/10/04 07:05:55;;;;;;;;;;;;;;;;;;5017775;28;20368;-25
2023/10/04 07:08:21;;;;;;;;;;;;;;;;;;5016802;28;19920;-28
2023/10/04 07:10:47;;;;;;;;;;;;;;;;;;5017690;28;19917;-27
2023/10/04 07:13:13;;;;;;;;;;;;;;;;;;5017911;28;19909;-26
2023/10/04 07:15:43;;;;;;;;;;;;;;;;;;5017681;28;19932;-30
2023/10/04 07:18:12;;;;;;;;;;;;;;;;;;5017608;28;19917;-29
2023/10/04 07:20:38;;;;;;;;;;;;;;;;;;5017500;28;20378;-31
2023/10/04 07:23:05;;;;;;;;;;;;;;;;;;5017792;28;20026;-31
2023/10/04 07:25:31;;;;;;;;;;;;;;;;;;5017373;28;19918;-24
2023/10/04 07:27:57;;;;;;;;;;;;;;;;;;5017386;28;19909;-27
2023/10/04 07:30:25;;;;;;;;;;;;;;;;;;5017257;28;19910;-28
2023/10/04 07:32:51;;;;;;;;;;;;;;;;;;5017346;28;19996;-25
2023/10/04 07:35:23;;;;;;;;;;;;;;;;;;5016368;28;19960;-24
2023/10/04 07:37:49;;;;;;;;;;;;;;;;;;5017261;28;20379;-24
2023/10/04 07:40:15;;;;;;;;;;;;;;;;;;5017012;28;19961;-25
2023/10/04 07:42:41;;;;;;;;;;;;;;;;;;5017131;28;20214;-26
2023/10/04 07:45:07;;;;;;;;;;;;;;;;;;5016918;28;20004;-28
2023/10/04 07:47:33;;;;;;;;;;;;;;;;;;5016776;28;19933;-29
2023/10/04 07:49:59;;;;;;;;;;;;;;;;;;5016865;28;19909;-26
2023/10/04 07:52:25;;;;;;;;;;;;;;;;;;5016683;28;19920;-29
2023/10/04 07:54:53;;;;;;;;;;;;;;;;;;5016928;28;20011;-29
2023/10/04 07:57:19;;;;;;;;;;;;;;;;;;5016792;28;20004;-27
2023/10/04 07:59:45;;;;;;;;;;;;;;;;;;5016927;28;20043;-26
2023/10/04 08:02:11;;;;;;;;;;;;;;;;;;5016759;28;19910;-24
2023/10/04 08:04:37;;;;;;;;;;;;;;;;;;5016801;28;20272;-30
2023/10/04 08:07:03;;;;;;;;;;;;;;;;;;5016940;28;19916;-25
2023/10/04 08:09:29;;;;;;;;;;;;;;;;;;5015846;28;19909;-24
2023/10/04 08:11:55;;;;;;;;;;;;;;;;;;5016659;28;19948;-25
2023/10/04 08:14:21;;;;;;;;;;;;;;;;;;5016656;28;19977;-28
2023/10/04 08:16:48;;;;;;;;;;;;;;;;;;5016521;28;19913;-29
2023/10/04 08:19:14;;;;;;;;;;;;;;;;;;5016737;28;19909;-28
2023/10/04 08:21:41;;;;;;;;;;;;;;;;;;5015436;28;19919;-28
2023/10/04 08:24:06;;;;;;;;;;;;;;;;;;5016138;28;19910;-26
2023/10/04 08:26:33;;;;;;;;;;;;;;;;;;5016274;28;20299;-26
2023/10/04 08:28:59;;;;;;;;;;;;;;;;;;5015992;28;20205;-28
2023/10/04 08:31:25;;;;;;;;;;;;;;;;;;5015181;28;20345;-27
2023/10/04 08:33:51;;;;;;;;;;;;;;;;;;5016310;28;19909;-31
2023/10/04 08:36:17;;;;;;;;;;;;;;;;;;5016130;28;19910;-28
2023/10/04 08:38:45;;;;;;;;;;;;;;;;;;5016188;28;20075;-31
2023/10/04 08:41:11;;;;;;;;;;;;;;;;;;5015577;28;20026;-29
2023/10/04 08:43:37;;;;;;;;;;;;;;;;;;5015052;28;19921;-28
2023/10/04 08:46:03;;;;;;;;;;;;;;;;;;5015089;28;19909;-26
2023/10/04 08:48:29;;;;;;;;;;;;;;;;;;5014958;28;19910;-28
2023/10/04 08:50:56;;;;;;;;;;;;;;;;;;5014897;28;19909;-28
2023/10/04 08:53:22;;;;;;;;;;;;;;;;;;5013716;28;19910;-29
2023/10/04 08:55:48;;;;;;;;;;;;;;;;;;5014785;28;20076;-25
2023/10/04 08:58:14;;;;;;;;;;;;;;;;;;5014605;28;19910;-28
2023/10/04 09:00:43;;;;;;;;;;;;;;;;;;5013666;28;19924;-27
2023/10/04 09:03:08;;;;;;;;;;;;;;;;;;5014958;28;19968;-26
2023/10/04 09:05:34;;;;;;;;;;;;;;;;;;5014712;28;20335;-27
2023/10/04 09:08:04;;;;;;;;;;;;;;;;;;5014688;28;20285;-28
2023/10/04 09:10:32;;;;;;;;;;;;;;;;;;5013894;28;19932;-29
2023/10/04 09:12:58;;;;;;;;;;;;;;;;;;5014899;28;19909;-28
2023/10/04 09:15:24;;;;;;;;;;;;;;;;;;5013765;28;20256;-32
2023/10/04 09:17:57;;;;;;;;;;;;;;;;;;5014622;28;19916;-30
2023/10/04 09:20:23;;;;;;;;;;;;;;;;;;5014397;28;19977;-32
2023/10/04 09:22:50;;;;;;;;;;;;;;;;;;5013679;28;19944;-26
2023/10/04 09:25:16;;;;;;;;;;;;;;;;;;5014192;28;20248;-30
2023/10/04 09:27:42;;;;;;;;;;;;;;;;;;5015466;28;20340;-29
2023/10/04 09:30:11;;;;;;;;;;;;;;;;;;5015079;28;19910;-28
2023/10/04 09:32:40;;;;;;;;;;;;;;;;;;5015248;28;20288;-34
2023/10/04 09:35:06;;;;;;;;;;;;;;;;;;5015211;28;19910;-27
2023/10/04 09:37:32;;;;;;;;;;;;;;;;;;5015571;28;20000;-29
2023/10/04 09:39:58;;;;;;;;;;;;;;;;;;5014984;28;20011;-32
2023/10/04 09:42:24;;;;;;;;;;;;;;;;;;5013767;28;19979;-27
2023/10/04 09:44:50;;;;;;;;;;;;;;;;;;5014722;28;19909;-30
2023/10/04 09:47:16;;;;;;;;;;;;;;;;;;5014520;28;19937;-28
2023/10/04 09:49:42;;;;;;;;;;;;;;;;;;5014509;28;19909;-31
2023/10/04 09:52:08;;;;;;;;;;;;;;;;;;5014439;28;19909;-33
2023/10/04 09:54:34;;;;;;;;;;;;;;;;;;5013937;28;19917;-25
2023/10/04 09:57:00;;;;;;;;;;;;;;;;;;5014883;28;19909;-30
2023/10/04 09:59:26;;;;;;;;;;;;;;;;;;5014974;28;20056;-28
2023/10/04 10:01:55;;;;;;;;;;;;;;;;;;5014724;28;19909;-27
2023/10/04 10:04:21;;;;;;;;;;;;;;;;;;5014638;28;19918;-27
2023/10/04 10:06:47;;;;;;;;;;;;;;;;;;5013615;28;19920;-26
2023/10/04 10:09:16;;;;;;;;;;;;;;;;;;5014545;28;20286;-23
2023/10/04 10:11:45;;;;;;;;;;;;;;;;;;5014607;28;20000;-24
2023/10/04 10:14:11;;;;;;;;;;;;;;;;;;5014595;28;19945;-27
2023/10/04 10:16:37;;;;;;;;;;;;;;;;;;5014716;28;20332;-26
2023/10/04 10:19:03;;;;;;;;;;;;;;;;;;5014813;28;19910;-34
2023/10/04 10:21:29;;;;;;;;;;;;;;;;;;5013613;28;19909;-28
2023/10/04 10:23:55;;;;;;;;;;;;;;;;;;5014704;28;20040;-30
2023/10/04 10:26:22;;;;;;;;;;;;;;;;;;5014399;28;20360;-30
2023/10/04 10:28:48;;;;;;;;;;;;;;;;;;5014376;28;19910;-29
2023/10/04 10:31:14;;;;;;;;;;;;;;;;;;5014258;28;19933;-25
2023/10/04 10:33:40;;;;;;;;;;;;;;;;;;5017062;28;19910;-28
2023/10/04 10:36:06;;;;;;;;;;;;;;;;;;5018554;28;19909;-28
2023/10/04 10:38:32;;;;;;;;;;;;;;;;;;5018314;28;19909;-27
2023/10/04 10:40:58;;;;;;;;;;;;;;;;;;5018384;28;20332;-26
2023/10/04 10:43:24;;;;;;;;;;;;;;;;;;5018207;28;20000;-28
2023/10/04 10:45:51;;;;;;;;;;;;;;;;;;5017954;28;19916;-28
2023/10/04 10:48:16;;;;;;;;;;;;;;;;;;5017814;28;19913;-28
2023/10/04 10:50:43;;;;;;;;;;;;;;;;;;5018268;28;19979;-30
2023/10/04 10:53:10;;;;;;;;;;;;;;;;;;5017850;28;20293;-30
2023/10/04 10:55:36;;;;;;;;;;;;;;;;;;5016835;28;19910;-28
2023/10/04 10:58:02;;;;;;;;;;;;;;;;;;5017575;28;19916;-27
2023/10/04 11:00:37;;;;;;;;;;;;;;;;;;5017237;28;19928;-27
2023/10/04 11:03:03;;;;;;;;;;;;;;;;;;5017420;28;19916;-27
2023/10/04 11:05:29;;;;;;;;;;;;;;;;;;5017045;28;19922;-26
2023/10/04 11:07:55;;;;;;;;;;;;;;;;;;5017457;28;19913;-28
2023/10/04 11:10:23;;;;;;;;;;;;;;;;;;5017206;28;19909;-29
2023/10/04 11:12:49;;;;;;;;;;;;;;;;;;5017101;28;20008;-32
2023/10/04 11:15:20;;;;;;;;;;;;;;;;;;5016903;28;19949;-27
2023/10/04 11:17:46;;;;;;;;;;;;;;;;;;5016949;28;20000;-30
2023/10/04 11:20:12;;;;;;;;;;;;;;;;;;5016755;28;20020;-28
2023/10/04 11:22:38;;;;;;;;;;;;;;;;;;5017337;28;19909;-32
2023/10/04 11:25:05;;;;;;;;;;;;;;;;;;5017197;28;20021;-26
2023/10/04 11:27:31;;;;;;;;;;;;;;;;;;5017272;28;19910;-28
2023/10/04 11:29:59;;;;;;;;;;;;;;;;;;5017328;28;20238;-31
2023/10/04 11:32:25;;;;;;;;;;;;;;;;;;5017539;28;20340;-28
2023/10/04 11:34:51;;;;;;;;;;;;;;;;;;5017569;28;20272;-27
2023/10/04 11:37:17;;;;;;;;;;;;;;;;;;5017289;28;19909;-31
2023/10/04 11:39:43;;;;;;;;;;;;;;;;;;5017222;28;20398;-30
2023/10/04 11:42:10;;;;;;;;;;;;;;;;;;5015946;28;20004;-29
2023/10/04 11:44:37;;;;;;;;;;;;;;;;;;5015679;28;19909;-29
2023/10/04 11:47:04;;;;;;;;;;;;;;;;;;5016957;28;20261;-30
2023/10/04 11:49:29;;;;;;;;;;;;;;;;;;5017184;28;19957;-26
2023/10/04 11:51:58;;;;;;;;;;;;;;;;;;5016855;28;19910;-25
2023/10/04 11:54:26;;;;;;;;;;;;;;;;;;5017337;28;19909;-24
2023/10/04 11:56:52;;;;;;;;;;;;;;;;;;5017117;28;20000;-32
2023/10/04 11:59:18;;;;;;;;;;;;;;;;;;5016701;28;19953;-32
2023/10/04 12:01:45;;;;;;;;;;;;;;;;;;5016986;28;19913;-34
2023/10/04 12:04:11;;;;;;;;;;;;;;;;;;5015311;28;19920;-31
2023/10/04 12:06:37;;;;;;;;;;;;;;;;;;5015690;28;19954;-31
2023/10/04 12:09:07;;;;;;;;;;;;;;;;;;5016707;28;20229;-30
2023/10/04 12:11:37;;;;;;;;;;;;;;;;;;5016711;28;19910;-26
2023/10/04 12:14:04;;;;;;;;;;;;;;;;;;5016882;28;19909;-28
2023/10/04 12:16:32;;;;;;;;;;;;;;;;;;5016557;28;19971;-28
2023/10/04 12:18:58;;;;;;;;;;;;;;;;;;5016869;28;19910;-27
2023/10/04 12:21:24;;;;;;;;;;;;;;;;;;5016231;28;20400;-32
2023/10/04 12:23:51;;;;;;;;;;;;;;;;;;5016227;28;20340;-28
2023/10/04 12:26:20;;;;;;;;;;;;;;;;;;5016194;28;19945;-27
2023/10/04 12:28:47;;;;;;;;;;;;;;;;;;5016444;28;19972;-26
2023/10/04 12:31:13;;;;;;;;;;;;;;;;;;5016050;28;20359;-25
2023/10/04 12:33:39;;;;;;;;;;;;;;;;;;5016065;28;19910;-28
2023/10/04 12:36:05;;;;;;;;;;;;;;;;;;5016313;28;19913;-29
2023/10/04 12:38:31;;;;;;;;;;;;;;;;;;5016061;28;19909;-27
2023/10/04 12:40:57;;;;;;;;;;;;;;;;;;5015995;28;19913;-27
2023/10/04 12:43:24;;;;;;;;;;;;;;;;;;5014848;28;20304;-25
2023/10/04 12:45:54;;;;;;;;;;;;;;;;;;5015862;28;20004;-27
2023/10/04 12:48:19;;;;;;;;;;;;;;;;;;5015771;28;20362;-30
2023/10/04 12:50:45;;;;;;;;;;;;;;;;;;5015850;28;19932;-29
2023/10/04 12:53:11;;;;;;;;;;;;;;;;;;5015665;28;19933;-27
2023/10/04 12:55:37;;;;;;;;;;;;;;;;;;5015106;28;19941;-34
2023/10/04 12:58:04;;;;;;;;;;;;;;;;;;5015341;28;19933;-27
2023/10/04 13:00:30;;;;;;;;;;;;;;;;;;5015432;28;20035;-28
2023/10/04 13:02:57;;;;;;;;;;;;;;;;;;5015898;28;19909;-31
2023/10/04 13:05:25;;;;;;;;;;;;;;;;;;5015467;28;20313;-27
2023/10/04 13:07:51;;;;;;;;;;;;;;;;;;5014850;28;19967;-27
2023/10/04 13:10:17;;;;;;;;;;;;;;;;;;5016201;28;19957;-26
2023/10/04 13:12:43;;;;;;;;;;;;;;;;;;5015383;28;19910;-29
2023/10/04 13:15:13;;;;;;;;;;;;;;;;;;5015614;28;19932;-28
2023/10/04 13:17:39;;;;;;;;;;;;;;;;;;5015448;28;20359;-26
2023/10/04 13:20:09;;;;;;;;;;;;;;;;;;5015565;28;19914;-25
2023/10/04 13:22:35;;;;;;;;;;;;;;;;;;5014224;28;19913;-26
2023/10/04 13:25:03;;;;;;;;;;;;;;;;;;5015392;28;19920;-24
2023/10/04 13:27:30;;;;;;;;;;;;;;;;;;5014176;28;19920;-30
2023/10/04 13:29:56;;;;;;;;;;;;;;;;;;5015110;28;19910;-30
2023/10/04 13:32:23;;;;;;;;;;;;;;;;;;5015371;28;19909;-30
2023/10/04 13:34:49;;;;;;;;;;;;;;;;;;5015209;28;19917;-32
2023/10/04 13:37:15;;;;;;;;;;;;;;;;;;5015267;28;19910;-27
2023/10/04 13:39:41;;;;;;;;;;;;;;;;;;5014034;28;20329;-30
2023/10/04 13:42:07;;;;;;;;;;;;;;;;;;5014816;28;19932;-31
2023/10/04 13:44:34;;;;;;;;;;;;;;;;;;5015204;28;19909;-25
2023/10/04 13:47:00;;;;;;;;;;;;;;;;;;5014907;28;19948;-29
2023/10/04 13:49:26;;;;;;;;;;;;;;;;;;5014726;28;19928;-31
2023/10/04 13:51:54;;;;;;;;;;;;;;;;;;5015139;28;20244;-27
2023/10/04 13:54:21;;;;;;;;;;;;;;;;;;5013874;28;19909;-31
2023/10/04 13:56:47;;;;;;;;;;;;;;;;;;5015085;28;20075;-24
2023/10/04 13:59:13;;;;;;;;;;;;;;;;;;5014910;28;19992;-31
2023/10/04 14:01:41;;;;;;;;;;;;;;;;;;5014944;28;19967;-29
2023/10/04 14:04:09;;;;;;;;;;;;;;;;;;5014497;28;20312;-31
2023/10/04 14:06:35;;;;;;;;;;;;;;;;;;5013509;28;20317;-27
2023/10/04 14:09:10;;;;;;;;;;;;;;;;;;5014217;28;19916;-28
2023/10/04 14:11:36;;;;;;;;;;;;;;;;;;5014730;28;19909;-32
2023/10/04 14:14:07;;;;;;;;;;;;;;;;;;5013507;28;20001;-27
2023/10/04 14:16:33;;;;;;;;;;;;;;;;;;5014611;28;19909;-27
2023/10/04 14:18:59;;;;;;;;;;;;;;;;;;5014524;28;19987;-30
2023/10/04 14:21:25;;;;;;;;;;;;;;;;;;5014436;28;20016;-25
2023/10/04 14:23:50;;;;;;;;;;;;;;;;;;5014654;28;19910;-28
2023/10/04 14:26:18;;;;;;;;;;;;;;;;;;5014583;28;19917;-28
2023/10/04 14:28:44;;;;;;;;;;;;;;;;;;5014439;28;19917;-28
2023/10/04 14:31:11;;;;;;;;;;;;;;;;;;5014643;28;19921;-25
2023/10/04 14:33:39;;;;;;;;;;;;;;;;;;5014411;28;20015;-26
2023/10/04 14:36:04;;;;;;;;;;;;;;;;;;5014455;28;19913;-27
2023/10/04 14:38:30;;;;;;;;;;;;;;;;;;5014431;28;20048;-30
2023/10/04 14:40:58;;;;;;;;;;;;;;;;;;5014564;28;19917;-31
2023/10/04 14:43:24;;;;;;;;;;;;;;;;;;5014675;28;19910;-30
2023/10/04 14:45:51;;;;;;;;;;;;;;;;;;5013250;28;20293;-32
2023/10/04 14:48:17;;;;;;;;;;;;;;;;;;5014186;28;19937;-27
2023/10/04 14:50:43;;;;;;;;;;;;;;;;;;5014119;28;19909;-26
2023/10/04 14:53:09;;;;;;;;;;;;;;;;;;5014315;28;20272;-34
2023/10/04 14:55:35;;;;;;;;;;;;;;;;;;5013820;28;19933;-29
2023/10/04 14:58:01;;;;;;;;;;;;;;;;;;5013994;28;19921;-30
2023/10/04 15:00:27;;;;;;;;;;;;;;;;;;5013948;28;19936;-29
2023/10/04 15:02:56;;;;;;;;;;;;;;;;;;5013757;28;19918;-27
2023/10/04 15:05:22;;;;;;;;;;;;;;;;;;5013787;28;20218;-32
2023/10/04 15:07:49;;;;;;;;;;;;;;;;;;5013719;28;19963;-30
2023/10/04 15:10:19;;;;;;;;;;;;;;;;;;5013988;28;20336;-33
2023/10/04 15:12:46;;;;;;;;;;;;;;;;;;5013576;28;19913;-28
2023/10/04 15:15:12;;;;;;;;;;;;;;;;;;5013670;28;19909;-29
2023/10/04 15:17:41;;;;;;;;;;;;;;;;;;5013680;28;19971;-32
2023/10/04 15:20:08;;;;;;;;;;;;;;;;;;5016311;28;19920;-27
2023/10/04 15:22:40;;;;;;;;;;;;;;;;;;5016896;28;19916;-29
2023/10/04 15:25:11;;;;;;;;;;;;;;;;;;5016990;28;19916;-29
2023/10/04 15:27:38;;;;;;;;;;;;;;;;;;5016941;28;20360;-29
2023/10/04 15:30:04;;;;;;;;;;;;;;;;;;5016958;28;19910;-27
2023/10/04 15:32:31;;;;;;;;;;;;;;;;;;5016849;28;20005;-30
2023/10/04 15:34:59;;;;;;;;;;;;;;;;;;5016778;28;20447;-30
2023/10/04 15:37:25;;;;;;;;;;;;;;;;;;5016004;28;20225;-25
2023/10/04 15:39:51;;;;;;;;;;;;;;;;;;5017217;28;19920;-27
2023/10/04 15:42:17;;;;;;;;;;;;;;;;;;5017132;28;19909;-28
2023/10/04 15:44:43;;;;;;;;;;;;;;;;;;5017503;28;19909;-28
2023/10/04 15:47:09;;;;;;;;;;;;;;;;;;5017348;28;19910;-29
2023/10/04 15:49:35;;;;;;;;;;;;;;;;;;5017315;28;19920;-27
2023/10/04 15:52:01;;;;;;;;;;;;;;;;;;5016876;28;19910;-32
2023/10/04 15:54:27;;;;;;;;;;;;;;;;;;5016595;28;20067;-31
2023/10/04 15:56:53;;;;;;;;;;;;;;;;;;5016807;28;19920;-26
2023/10/04 15:59:19;;;;;;;;;;;;;;;;;;5016541;28;19910;-26
2023/10/04 16:01:45;;;;;;;;;;;;;;;;;;5016757;28;19913;-28
2023/10/04 16:04:11;;;;;;;;;;;;;;;;;;5016688;28;20008;-31
2023/10/04 16:06:38;;;;;;;;;;;;;;;;;;5016785;28;19909;-32
2023/10/04 16:09:06;;;;;;;;;;;;;;;;;;5016553;28;19940;-24
2023/10/04 16:11:32;;;;;;;;;;;;;;;;;;5017027;28;20304;-33
2023/10/04 16:13:59;;;;;;;;;;;;;;;;;;5016791;28;19924;-34
2023/10/04 16:16:26;;;;;;;;;;;;;;;;;;5016536;28;20345;-33
2023/10/04 16:18:52;;;;;;;;;;;;;;;;;;5016528;28;19964;-31
2023/10/04 16:21:18;;;;;;;;;;;;;;;;;;5016319;28;19913;-28
2023/10/04 16:23:44;;;;;;;;;;;;;;;;;;5016723;28;20004;-27
2023/10/04 16:26:10;;;;;;;;;;;;;;;;;;5015365;28;19909;-30
2023/10/04 16:28:36;;;;;;;;;;;;;;;;;;5016065;28;20264;-28
2023/10/04 16:31:02;;;;;;;;;;;;;;;;;;5015376;28;20352;-26
2023/10/04 16:33:28;;;;;;;;;;;;;;;;;;5015765;28;19910;-29
2023/10/04 16:35:55;;;;;;;;;;;;;;;;;;5016133;28;19918;-25
2023/10/04 16:38:20;;;;;;;;;;;;;;;;;;5016093;28;20249;-29
2023/10/04 16:40:46;;;;;;;;;;;;;;;;;;5016265;28;19924;-27
2023/10/04 16:43:12;;;;;;;;;;;;;;;;;;5015783;28;19910;-28